createdAt,value
2022-11-13T00:02:29.639Z,14.63
2022-11-13T00:05:15.415Z,14.30
2022-11-13T00:08:01.216Z,15.40
2022-11-13T00:10:46.978Z,14.07
2022-11-13T00:13:34.451Z,14.03
2022-11-13T00:16:21.827Z,13.23
2022-11-13T00:19:07.866Z,14.33
2022-11-13T00:21:54.744Z,13.00
2022-11-13T00:24:40.447Z,14.50
2022-11-13T00:27:26.177Z,15.23
2022-11-13T00:30:17.871Z,13.03
2022-11-13T00:33:05.127Z,14.50
2022-11-13T00:35:51.304Z,14.57
2022-11-13T00:38:37.172Z,16.57
2022-11-13T00:41:23.932Z,15.77
2022-11-13T00:44:09.624Z,17.70
2022-11-13T00:46:55.655Z,15.47
2022-11-13T00:49:41.616Z,17.87
2022-11-13T00:52:27.632Z,15.33
2022-11-13T00:55:13.685Z,21.50
2022-11-13T00:57:59.689Z,18.33
2022-11-13T01:00:47.149Z,19.10
2022-11-13T01:03:32.961Z,18.60
2022-11-13T01:06:27.225Z,17.60
2022-11-13T01:09:13.120Z,17.43
2022-11-13T01:11:58.896Z,19.57
2022-11-13T01:14:44.994Z,17.80
2022-11-13T01:17:31.469Z,20.40
2022-11-13T01:20:18.038Z,18.00
2022-11-13T01:23:04.502Z,17.30
2022-11-13T01:25:50.436Z,18.77
2022-11-13T01:28:36.363Z,22.70
2022-11-13T01:31:25.503Z,22.87
2022-11-13T01:34:11.662Z,24.70
2022-11-13T01:36:58.021Z,22.80
2022-11-13T01:39:43.736Z,19.07
2022-11-13T01:42:31.645Z,16.43
2022-11-13T01:46:00.713Z,15.80
2022-11-13T01:48:52.541Z,17.37
2022-11-13T01:51:49.546Z,14.90
2022-11-13T01:54:40.447Z,16.33
2022-11-13T01:57:26.304Z,16.47
2022-11-13T02:00:12.682Z,15.00
2022-11-13T02:02:59.015Z,14.27
2022-11-13T02:05:44.775Z,16.23
2022-11-13T02:08:31.071Z,14.93
2022-11-13T02:11:17.792Z,17.03
2022-11-13T02:14:05.283Z,16.10
2022-11-13T02:16:55.277Z,15.47
2022-11-13T02:19:47.245Z,15.57
2022-11-13T02:22:55.160Z,17.63
2022-11-13T02:25:42.733Z,17.77
2022-11-13T02:28:28.526Z,18.67
2022-11-13T02:31:14.776Z,17.80
2022-11-13T02:34:03.981Z,17.83
2022-11-13T02:36:50.177Z,16.30
2022-11-13T02:39:36.180Z,20.63
2022-11-13T02:42:21.892Z,17.47
2022-11-13T02:45:09.084Z,17.30
2022-11-13T02:47:54.857Z,19.50
2022-11-13T02:50:40.789Z,17.53
2022-11-13T02:53:26.831Z,20.33
2022-11-13T02:56:13.605Z,19.70
2022-11-13T02:58:59.468Z,19.50
2022-11-13T03:01:46.300Z,21.37
2022-11-13T03:04:57.293Z,19.00
2022-11-13T03:07:38.506Z,22.10
2022-11-13T03:10:24.098Z,21.17
2022-11-13T03:13:09.777Z,19.90
2022-11-13T03:15:55.548Z,20.13
2022-11-13T03:18:41.879Z,20.17
2022-11-13T03:21:27.735Z,21.40
2022-11-13T03:24:13.595Z,19.40
2022-11-13T03:26:59.351Z,17.70
2022-11-13T03:29:45.077Z,19.00
2022-11-13T03:32:31.192Z,18.37
2022-11-13T03:35:17.246Z,19.70
2022-11-13T03:38:03.132Z,20.43
2022-11-13T03:40:49.687Z,22.13
2022-11-13T03:43:35.669Z,15.60
2022-11-13T03:46:21.384Z,17.53
2022-11-13T03:49:07.274Z,16.83
2022-11-13T03:51:53.132Z,15.73
2022-11-13T03:54:38.762Z,17.53
2022-11-13T03:57:24.616Z,17.00
2022-11-13T04:00:11.416Z,15.70
2022-11-13T04:02:58.049Z,17.47
2022-11-13T04:05:44.243Z,18.93
2022-11-13T04:08:30.405Z,14.97
2022-11-13T04:11:16.198Z,16.10
2022-11-13T04:14:02.444Z,19.87
2022-11-13T04:16:48.325Z,18.40
2022-11-13T04:19:33.988Z,18.40
2022-11-13T04:22:20.127Z,19.07
2022-11-13T04:25:07.057Z,15.27
2022-11-13T04:27:53.703Z,16.10
2022-11-13T04:30:39.830Z,16.87
2022-11-13T04:33:25.401Z,18.27
2022-11-13T04:36:11.641Z,16.93
2022-11-13T04:38:57.247Z,17.53
2022-11-13T04:42:01.772Z,18.70
2022-11-13T04:44:47.987Z,16.00
2022-11-13T04:47:34.034Z,15.77
2022-11-13T04:50:20.084Z,18.97
2022-11-13T04:53:05.738Z,17.40
2022-11-13T04:55:53.461Z,18.73
2022-11-13T04:58:39.428Z,19.67
2022-11-13T05:01:25.848Z,16.00
2022-11-13T05:04:15.426Z,17.90
2022-11-13T05:07:01.247Z,19.00
2022-11-13T05:09:47.386Z,16.90
2022-11-13T05:12:33.460Z,16.43
2022-11-13T05:15:19.448Z,18.37
2022-11-13T05:18:05.671Z,17.67
2022-11-13T05:20:52.114Z,15.20
2022-11-13T05:23:38.314Z,17.83
2022-11-13T05:26:26.224Z,17.97
2022-11-13T05:29:11.905Z,20.43
2022-11-13T05:31:57.999Z,19.50
2022-11-13T05:34:44.086Z,17.40
2022-11-13T05:37:29.936Z,19.40
2022-11-13T05:40:16.265Z,19.03
2022-11-13T05:43:02.421Z,19.20
2022-11-13T05:45:48.624Z,21.80
2022-11-13T05:48:36.104Z,19.77
2022-11-13T05:51:24.856Z,21.23
2022-11-13T05:54:11.340Z,20.07
2022-11-13T05:56:57.384Z,20.80
2022-11-13T05:59:43.771Z,21.37
2022-11-13T06:02:29.701Z,22.60
2022-11-13T06:05:15.972Z,21.50
2022-11-13T06:08:01.671Z,22.40
2022-11-13T06:10:47.660Z,23.73
2022-11-13T06:13:34.515Z,25.20
2022-11-13T06:16:27.053Z,25.47
2022-11-13T06:19:13.069Z,22.43
2022-11-13T06:21:59.278Z,24.47
2022-11-13T06:24:45.286Z,27.63
2022-11-13T06:27:31.496Z,24.27
2022-11-13T06:30:17.708Z,25.40
2022-11-13T06:33:04.197Z,27.67
2022-11-13T06:35:49.901Z,27.47
2022-11-13T06:38:37.514Z,26.60
2022-11-13T06:41:26.321Z,31.93
2022-11-13T06:44:12.436Z,36.00
2022-11-13T06:46:58.421Z,31.57
2022-11-13T06:49:44.863Z,34.33
2022-11-13T06:52:31.024Z,29.07
2022-11-13T06:55:17.105Z,35.00
2022-11-13T06:58:02.664Z,32.80
2022-11-13T07:00:48.726Z,23.67
2022-11-13T07:03:35.060Z,24.00
2022-11-13T07:06:23.895Z,26.37
2022-11-13T07:09:09.591Z,20.50
2022-11-13T07:11:55.691Z,23.27
2022-11-13T07:14:41.846Z,28.60
2022-11-13T07:17:29.048Z,22.90
2022-11-13T07:20:14.900Z,20.57
2022-11-13T07:23:03.141Z,21.30
2022-11-13T07:25:49.141Z,20.80
2022-11-13T07:28:34.765Z,22.57
2022-11-13T07:31:22.040Z,21.53
2022-11-13T07:34:08.069Z,20.50
2022-11-13T07:36:54.032Z,22.80
2022-11-13T07:39:39.665Z,25.40
2022-11-13T07:42:25.877Z,22.37
2022-11-13T07:45:11.948Z,22.70
2022-11-13T07:47:59.290Z,23.20
2022-11-13T07:50:45.267Z,21.60
2022-11-13T07:53:31.505Z,22.47
2022-11-13T07:56:22.764Z,25.77
2022-11-13T07:59:08.679Z,21.47
2022-11-13T08:01:54.649Z,16.30
2022-11-13T08:04:40.791Z,18.97
2022-11-13T08:07:26.655Z,21.33
2022-11-13T08:10:12.344Z,20.83
2022-11-13T08:13:06.686Z,21.03
2022-11-13T08:15:52.756Z,20.60
2022-11-13T08:18:38.912Z,20.80
2022-11-13T08:21:25.352Z,19.30
2022-11-13T08:24:11.507Z,19.43
2022-11-13T08:26:57.941Z,21.57
2022-11-13T08:29:44.399Z,20.27
2022-11-13T08:32:30.401Z,22.70
2022-11-13T08:35:19.462Z,22.20
2022-11-13T08:38:08.686Z,19.27
2022-11-13T08:41:08.367Z,17.53
2022-11-13T08:43:55.139Z,18.33
2022-11-13T08:46:41.268Z,16.33
2022-11-13T08:49:27.934Z,16.30
2022-11-13T08:52:15.594Z,14.20
2022-11-13T08:55:01.804Z,18.00
2022-11-13T08:57:47.834Z,14.37
2022-11-13T09:00:33.853Z,13.93
2022-11-13T09:03:21.120Z,15.57
2022-11-13T09:06:07.995Z,12.90
2022-11-13T09:08:53.932Z,19.40
2022-11-13T09:11:39.888Z,13.37
2022-11-13T09:14:25.864Z,19.20
2022-11-13T09:17:12.031Z,11.40
2022-11-13T09:20:03.517Z,10.20
2022-11-13T09:22:56.949Z,11.17
2022-11-13T09:25:43.265Z,10.10
2022-11-13T09:28:29.985Z,10.20
2022-11-13T09:31:16.384Z,9.67
2022-11-13T09:34:02.948Z,10.17
2022-11-13T09:36:49.615Z,9.70
2022-11-13T09:39:35.321Z,9.60
2022-11-13T09:42:26.028Z,10.33
2022-11-13T09:45:15.515Z,9.60
2022-11-13T09:48:30.638Z,9.20
2022-11-13T09:51:20.965Z,10.60
2022-11-13T09:54:13.493Z,9.00
2022-11-13T09:57:26.725Z,9.60
2022-11-13T10:00:19.116Z,10.60
2022-11-13T10:03:39.046Z,9.27
2022-11-13T10:06:39.631Z,9.00
2022-11-13T10:09:34.027Z,8.97
2022-11-13T10:12:21.647Z,9.20
2022-11-13T10:15:10.789Z,9.03
2022-11-13T10:18:10.642Z,8.50
2022-11-13T10:21:17.932Z,8.47
2022-11-13T10:24:14.275Z,8.90
2022-11-13T10:27:00.676Z,9.30
2022-11-13T10:29:49.195Z,8.53
2022-11-13T10:32:35.081Z,9.00
2022-11-13T10:35:55.599Z,8.57
2022-11-13T10:38:44.357Z,9.20
2022-11-13T10:41:30.535Z,9.40
2022-11-13T10:44:35.280Z,9.00
2022-11-13T10:47:56.834Z,10.90
2022-11-13T10:50:32.191Z,10.00
2022-11-13T10:53:19.100Z,11.60
2022-11-13T10:56:27.233Z,11.13
2022-11-13T10:59:14.377Z,11.93
2022-11-13T11:02:18.698Z,12.90
2022-11-13T11:05:21.888Z,12.97
2022-11-13T11:08:11.228Z,13.57
2022-11-13T11:11:37.372Z,12.30
2022-11-13T11:14:26.570Z,13.00
2022-11-13T11:17:16.212Z,15.17
2022-11-13T11:20:16.550Z,13.97
2022-11-13T11:23:22.698Z,13.70
2022-11-13T11:26:16.028Z,13.93
2022-11-13T11:29:18.514Z,14.23
2022-11-13T11:32:19.336Z,12.70
2022-11-13T11:35:17.301Z,13.90
2022-11-13T11:38:24.379Z,14.97
2022-11-13T11:41:16.663Z,14.83
2022-11-13T11:44:19.469Z,13.93
2022-11-13T11:47:14.649Z,13.50
2022-11-13T11:50:01.748Z,13.40
2022-11-13T11:53:15.962Z,13.30
2022-11-13T11:56:16.193Z,12.43
2022-11-13T11:59:25.845Z,12.60
2022-11-13T12:02:43.548Z,13.47
2022-11-13T12:05:52.840Z,11.50
2022-11-13T12:08:59.613Z,13.20
2022-11-13T12:12:06.587Z,11.63
2022-11-13T12:15:15.265Z,11.23
2022-11-13T12:18:14.401Z,10.80
2022-11-13T12:21:17.985Z,12.70
2022-11-13T12:24:18.853Z,11.53
2022-11-13T12:27:29.435Z,12.33
2022-11-13T12:30:27.923Z,12.23
2022-11-13T12:33:32.681Z,12.13
2022-11-13T12:36:20.493Z,13.37
2022-11-13T12:39:14.876Z,15.37
2022-11-13T12:42:23.411Z,15.07
2022-11-13T12:45:21.127Z,15.87
2022-11-13T12:48:13.833Z,14.90
2022-11-13T12:51:02.340Z,15.00
2022-11-13T12:53:51.504Z,17.80
2022-11-13T12:56:37.600Z,14.80
2022-11-13T12:59:30.791Z,14.80
2022-11-13T13:02:25.488Z,14.93
2022-11-13T13:05:29.483Z,14.17
2022-11-13T13:08:43.900Z,14.77
2022-11-13T13:11:30.047Z,15.57
2022-11-13T13:14:24.959Z,15.90
2022-11-13T13:17:14.122Z,15.53
2022-11-13T13:20:04.111Z,13.83
2022-11-13T13:22:58.264Z,16.40
2022-11-13T13:25:43.737Z,13.60
2022-11-13T13:28:31.648Z,15.77
2022-11-13T13:31:26.790Z,16.77
2022-11-13T13:34:29.920Z,16.13
2022-11-13T13:37:46.392Z,14.30
2022-11-13T13:40:49.005Z,14.43
2022-11-13T13:43:37.721Z,15.20
2022-11-13T13:46:28.100Z,13.70
2022-11-13T13:49:18.194Z,12.80
2022-11-13T13:52:05.292Z,10.00
2022-11-13T13:54:51.392Z,13.10
2022-11-13T13:57:41.844Z,14.20
2022-11-13T14:00:28.941Z,14.30
2022-11-13T14:03:20.857Z,13.30
2022-11-13T14:06:22.039Z,13.73
2022-11-13T14:09:16.757Z,13.53
2022-11-13T14:12:09.621Z,12.60
2022-11-13T14:14:55.860Z,10.97
2022-11-13T14:17:42.157Z,12.60
2022-11-13T14:20:27.911Z,13.33
2022-11-13T14:23:37.581Z,13.67
2022-11-13T14:26:23.906Z,13.60
2022-11-13T14:29:22.478Z,12.40
2022-11-13T14:32:16.039Z,14.00
2022-11-13T14:35:04.925Z,13.47
2022-11-13T14:37:52.783Z,13.03
2022-11-13T14:40:38.563Z,13.63
2022-11-13T14:43:30.360Z,14.20
2022-11-13T14:46:37.377Z,13.77
2022-11-13T14:49:29.583Z,13.53
2022-11-13T14:52:22.214Z,14.00
2022-11-13T14:55:20.371Z,15.10
2022-11-13T14:58:06.486Z,16.17
2022-11-13T15:00:52.730Z,15.83
2022-11-13T15:03:38.597Z,17.03
2022-11-13T15:06:27.020Z,12.37
2022-11-13T15:09:16.538Z,15.97
2022-11-13T15:12:02.360Z,16.20
2022-11-13T15:14:48.146Z,16.70
2022-11-13T15:17:34.510Z,21.48
2022-11-13T15:20:26.492Z,18.40
2022-11-13T15:23:16.505Z,16.60
2022-11-13T15:26:03.534Z,23.30
2022-11-13T15:28:49.706Z,19.10
2022-11-13T15:31:44.806Z,17.43
2022-11-13T15:34:30.684Z,18.00
2022-11-13T15:37:17.395Z,17.83
2022-11-13T15:40:04.892Z,17.63
2022-11-13T15:42:51.069Z,16.40
2022-11-13T15:45:42.773Z,19.40
2022-11-13T15:48:29.948Z,16.60
2022-11-13T15:51:20.989Z,18.20
2022-11-13T15:54:48.216Z,18.13
2022-11-13T15:57:34.105Z,16.93
2022-11-13T16:00:24.704Z,16.77
2022-11-13T16:03:12.139Z,16.40
2022-11-13T16:05:59.461Z,16.00
2022-11-13T16:08:45.578Z,14.50
2022-11-13T16:11:33.138Z,14.50
2022-11-13T16:14:23.559Z,14.20
2022-11-13T16:17:20.291Z,15.20
2022-11-13T16:20:07.809Z,15.50
2022-11-13T16:22:53.596Z,13.60
2022-11-13T16:25:39.836Z,13.40
2022-11-13T16:28:26.511Z,12.40
2022-11-13T16:31:12.376Z,11.67
2022-11-13T16:33:58.008Z,12.30
2022-11-13T16:36:44.365Z,13.17
2022-11-13T16:39:30.507Z,12.43
2022-11-13T16:42:17.345Z,12.07
2022-11-13T16:45:03.477Z,10.10
2022-11-13T16:47:50.583Z,10.57
2022-11-13T16:50:39.474Z,11.70
2022-11-13T16:53:26.173Z,11.70
2022-11-13T16:56:16.216Z,11.10
2022-11-13T16:59:02.818Z,9.80
2022-11-13T17:01:54.400Z,9.40
2022-11-13T17:04:40.422Z,9.20
2022-11-13T17:07:27.297Z,10.47
2022-11-13T17:10:32.687Z,10.10
2022-11-13T17:13:18.936Z,8.70
2022-11-13T17:16:05.183Z,8.30
2022-11-13T17:18:53.173Z,8.57
2022-11-13T17:21:43.972Z,8.60
2022-11-13T17:24:30.500Z,7.47
2022-11-13T17:27:17.215Z,7.77
2022-11-13T17:30:03.701Z,7.40
2022-11-13T17:32:50.004Z,7.00
2022-11-13T17:36:02.413Z,7.23
2022-11-13T17:38:48.447Z,7.03
2022-11-13T17:41:34.949Z,6.83
2022-11-13T17:44:20.999Z,5.93
2022-11-13T17:47:07.045Z,7.10
2022-11-13T17:49:52.911Z,6.40
2022-11-13T17:52:39.171Z,6.90
2022-11-13T17:55:25.725Z,6.90
2022-11-13T17:58:11.891Z,7.97
2022-11-13T18:01:07.020Z,7.53
2022-11-13T18:03:56.272Z,7.80
2022-11-13T18:06:42.174Z,7.30
2022-11-13T18:09:28.781Z,7.60
2022-11-13T18:12:14.878Z,7.60
2022-11-13T18:15:01.313Z,7.63
2022-11-13T18:17:47.184Z,7.87
2022-11-13T18:20:35.263Z,7.80
2022-11-13T18:23:21.275Z,7.37
2022-11-13T18:26:15.446Z,6.87
2022-11-13T18:29:02.661Z,8.30
2022-11-13T18:31:49.729Z,8.37
2022-11-13T18:34:36.367Z,7.33
2022-11-13T18:37:22.287Z,8.00
2022-11-13T18:40:09.209Z,6.80
2022-11-13T18:42:56.374Z,8.40
2022-11-13T18:45:42.570Z,7.73
2022-11-13T18:48:36.870Z,6.03
2022-11-13T18:51:25.425Z,7.40
2022-11-13T18:54:12.735Z,6.03
2022-11-13T18:56:59.457Z,6.43
2022-11-13T18:59:45.472Z,6.60
2022-11-13T19:02:31.752Z,6.43
2022-11-13T19:05:17.508Z,6.40
2022-11-13T19:08:03.921Z,6.17
2022-11-13T19:10:50.017Z,6.77
2022-11-13T19:13:37.150Z,6.83
2022-11-13T19:16:26.618Z,5.80
2022-11-13T19:19:19.192Z,6.40
2022-11-13T19:22:05.183Z,6.87
2022-11-13T19:24:51.150Z,6.00
2022-11-13T19:27:37.869Z,6.70
2022-11-13T19:30:23.855Z,6.03
2022-11-13T19:33:10.573Z,8.40
2022-11-13T19:35:56.900Z,6.73
2022-11-13T19:38:44.047Z,8.00
2022-11-13T19:41:30.756Z,6.30
2022-11-13T19:44:16.631Z,6.77
2022-11-13T19:47:02.458Z,5.60
2022-11-13T19:49:48.649Z,6.30
2022-11-13T19:52:34.428Z,6.97
2022-11-13T19:55:20.964Z,6.40
2022-11-13T19:58:07.116Z,6.80
2022-11-13T20:00:53.309Z,7.33
2022-11-13T20:03:39.739Z,6.87
2022-11-13T20:06:26.930Z,6.73
2022-11-13T20:09:13.231Z,7.63
2022-11-13T20:11:59.298Z,9.30
2022-11-13T20:14:45.159Z,10.10
2022-11-13T20:17:31.069Z,11.83
2022-11-13T20:20:17.648Z,11.27
2022-11-13T20:23:03.772Z,12.20
2022-11-13T20:25:58.148Z,12.70
2022-11-13T20:28:44.645Z,15.00
2022-11-13T20:31:30.861Z,13.40
2022-11-13T20:34:16.845Z,13.67
2022-11-13T20:37:02.978Z,14.63
2022-11-13T20:39:49.055Z,15.67
2022-11-13T20:42:34.737Z,15.40
2022-11-13T20:45:20.518Z,15.83
2022-11-13T20:48:06.280Z,16.00
2022-11-13T20:50:53.032Z,17.20
2022-11-13T20:53:39.238Z,15.37
2022-11-13T20:56:26.286Z,13.83
2022-11-13T20:59:12.291Z,16.10
2022-11-13T21:01:58.178Z,16.47
2022-11-13T21:04:44.243Z,15.90
2022-11-13T21:07:30.673Z,15.60
2022-11-13T21:10:16.740Z,15.10
2022-11-13T21:13:03.379Z,16.40
2022-11-13T21:15:48.900Z,15.80
2022-11-13T21:18:34.979Z,16.50
2022-11-13T21:21:22.352Z,16.87
2022-11-13T21:24:08.243Z,15.83
2022-11-13T21:26:53.896Z,17.17
2022-11-13T21:29:40.164Z,15.23
2022-11-13T21:32:26.165Z,16.80
2022-11-13T21:35:12.164Z,16.93
2022-11-13T21:37:58.359Z,14.07
2022-11-13T21:41:04.242Z,16.80
2022-11-13T21:44:04.460Z,17.67
2022-11-13T21:46:50.243Z,17.50
2022-11-13T21:49:36.203Z,16.90
2022-11-13T21:52:21.925Z,17.87
2022-11-13T21:55:09.462Z,15.93
2022-11-13T21:57:55.058Z,13.80
2022-11-13T22:00:41.622Z,14.87
2022-11-13T22:03:28.564Z,17.47
2022-11-13T22:06:26.813Z,18.10
2022-11-13T22:09:15.278Z,16.60
2022-11-13T22:12:01.392Z,16.23
2022-11-13T22:14:47.529Z,16.00
2022-11-13T22:17:33.110Z,14.47
2022-11-13T22:20:19.116Z,15.13
2022-11-13T22:23:05.669Z,17.93
2022-11-13T22:25:55.750Z,15.63
2022-11-13T22:28:45.673Z,18.20
2022-11-13T22:31:32.510Z,16.57
2022-11-13T22:34:19.002Z,16.90
2022-11-13T22:37:04.681Z,18.23
2022-11-13T22:39:50.538Z,18.80
2022-11-13T22:42:36.268Z,17.40
2022-11-13T22:45:24.177Z,18.50
2022-11-13T22:48:11.333Z,19.07
2022-11-13T22:51:02.789Z,18.23
2022-11-13T22:53:53.379Z,17.30
2022-11-13T22:56:41.026Z,17.30
2022-11-13T22:59:27.128Z,16.80
2022-11-13T23:02:13.067Z,19.87
2022-11-13T23:04:58.907Z,18.63
2022-11-13T23:07:45.233Z,18.70
2022-11-13T23:10:31.293Z,16.27
2022-11-13T23:13:17.702Z,17.90
2022-11-13T23:16:03.297Z,18.80
2022-11-13T23:18:50.812Z,19.83
2022-11-13T23:21:36.790Z,17.33
2022-11-13T23:24:23.992Z,17.67
2022-11-13T23:27:09.815Z,19.20
2022-11-13T23:29:55.871Z,19.00
2022-11-13T23:32:41.721Z,16.93
2022-11-13T23:35:27.821Z,17.53
2022-11-13T23:38:13.936Z,18.93
2022-11-13T23:41:01.356Z,20.23
2022-11-13T23:44:07.734Z,19.40
2022-11-13T23:46:52.916Z,18.37
2022-11-13T23:49:38.519Z,20.03
2022-11-13T23:52:24.312Z,20.07
2022-11-13T23:55:10.864Z,19.17
2022-11-13T23:57:59.355Z,20.13
